地図

経路データ

SID SEASON NUMBER BASIN SUBBASIN NAME ISO_TIME NATURE LAT LON WMO_WIND WMO_PRES WMO_AGENCY TRACK_TYPE DIST2LAND LANDFALL IFLAG USA_AGENCY USA_ATCF_ID USA_LAT USA_LON USA_RECORD USA_STATUS USA_WIND USA_PRES USA_SSHS USA_R34_NE USA_R34_SE USA_R34_SW USA_R34_NW USA_R50_NE USA_R50_SE USA_R50_SW USA_R50_NW USA_R64_NE USA_R64_SE USA_R64_SW USA_R64_NW USA_POCI USA_ROCI USA_RMW USA_EYE TOKYO_LAT TOKYO_LON TOKYO_GRADE TOKYO_WIND TOKYO_PRES TOKYO_R50_DIR TOKYO_R50_LONG TOKYO_R50_SHORT TOKYO_R30_DIR TOKYO_R30_LONG TOKYO_R30_SHORT TOKYO_LAND CMA_LAT CMA_LON CMA_CAT CMA_WIND CMA_PRES HKO_LAT HKO_LON HKO_CAT HKO_WIND HKO_PRES NEWDELHI_LAT NEWDELHI_LON NEWDELHI_GRADE NEWDELHI_WIND NEWDELHI_PRES NEWDELHI_CI NEWDELHI_DP NEWDELHI_POCI REUNION_LAT REUNION_LON REUNION_TYPE REUNION_WIND REUNION_PRES REUNION_TNUM REUNION_CI REUNION_RMW REUNION_R34_NE REUNION_R34_SE REUNION_R34_SW REUNION_R34_NW REUNION_R50_NE REUNION_R50_SE REUNION_R50_SW REUNION_R50_NW REUNION_R64_NE REUNION_R64_SE REUNION_R64_SW REUNION_R64_NW BOM_LAT BOM_LON BOM_TYPE BOM_WIND BOM_PRES BOM_TNUM BOM_CI BOM_RMW BOM_R34_NE BOM_R34_SE BOM_R34_SW BOM_R34_NW BOM_R50_NE BOM_R50_SE BOM_R50_SW BOM_R50_NW BOM_R64_NE BOM_R64_SE BOM_R64_SW BOM_R64_NW BOM_ROCI BOM_POCI BOM_EYE BOM_POS_METHOD BOM_PRES_METHOD NADI_LAT NADI_LON NADI_CAT NADI_WIND NADI_PRES WELLINGTON_LAT WELLINGTON_LON WELLINGTON_WIND WELLINGTON_PRES DS824_LAT DS824_LON DS824_STAGE DS824_WIND DS824_PRES TD9636_LAT TD9636_LON TD9636_STAGE TD9636_WIND TD9636_PRES TD9635_LAT TD9635_LON TD9635_WIND TD9635_PRES TD9635_ROCI NEUMANN_LAT NEUMANN_LON NEUMANN_CLASS NEUMANN_WIND NEUMANN_PRES MLC_LAT MLC_LON MLC_CLASS MLC_WIND MLC_PRES USA_GUST BOM_GUST BOM_GUST_PER REUNION_GUST REUNION_GUST_PER USA_SEAHGT USA_SEARAD_NE USA_SEARAD_SE USA_SEARAD_SW USA_SEARAD_NW STORM_SPEED STORM_DIR
1862275N12308 1862 23 NA NA NOT_NAMED 1862-10-01 12:00:00 TS 12.2000 -52.5000 main 730 724 _____________O -1 12.2000 -52.5000 TD 30 8 284
1862275N12308 1862 23 NA NA NOT_NAMED 1862-10-01 15:00:00 TS 12.3002 -52.9124 main 731 727 _____________P -1 12.3002 -52.9124 TD 35 8 284
1862275N12308 1862 23 NA NA NOT_NAMED 1862-10-01 18:00:00 TS 12.4000 -53.3000 main 734 732 _____________O -1 12.4000 -53.3000 TS 40 7 285
1862275N12308 1862 23 NA NA NOT_NAMED 1862-10-01 21:00:00 TS 12.4999 -53.6500 main 741 740 _____________P -1 12.4999 -53.6500 TS 45 7 286
1862275N12308 1862 23 NA NA NOT_NAMED 1862-10-02 00:00:00 TS 12.6000 -54.0000 main 750 728 _____________O -1 12.6000 -54.0000 TS 50 8 285
1862275N12308 1862 23 NA NA NOT_NAMED 1862-10-02 03:00:00 TS 12.7000 -54.4000 main 728 707 _____________P -1 12.7000 -54.4000 TS 55 8 284
1862275N12308 1862 23 NA NA NOT_NAMED 1862-10-02 06:00:00 TS 12.8000 -54.8000 main 707 688 _____________O -1 12.8000 -54.8000 TS 60 8 285
1862275N12308 1862 23 NA NA NOT_NAMED 1862-10-02 09:00:00 TS 12.8999 -55.1426 main 688 651 _____________P -1 12.8999 -55.1426 TS 65 7 286
1862275N12308 1862 23 NA NA NOT_NAMED 1862-10-02 12:00:00 TS 13.0000 -55.5000 main 651 616 _____________O -1 13.0000 -55.5000 HU 70 8 285
1862275N12308 1862 23 NA NA NOT_NAMED 1862-10-02 15:00:00 TS 13.1075 -55.9350 main 616 573 _____________P -1 13.1075 -55.9350 HU 72 9 283
1862275N12308 1862 23 NA NA NOT_NAMED 1862-10-02 18:00:00 TS 13.2000 -56.4000 main 573 536 _____________O -1 13.2000 -56.4000 HU 75 9 280
1862275N12308 1862 23 NA NA NOT_NAMED 1862-10-02 21:00:00 TS 13.2574 -56.8501 main 532 496 _____________P -1 13.2574 -56.8501 HU 75 9 277
1862275N12308 1862 23 NA NA NOT_NAMED 1862-10-03 00:00:00 TS 13.3000 -57.3000 main 496 462 _____________O -1 13.3000 -57.3000 HU 75 9 276
1862275N12308 1862 23 NA NA NOT_NAMED 1862-10-03 03:00:00 TS 13.3500 -57.7575 main 453 429 _____________P -1 13.3500 -57.7575 HU 72 9 277
1862275N12308 1862 23 NA NA NOT_NAMED 1862-10-03 06:00:00 TS 13.4000 -58.2000 main 429 406 _____________O -1 13.4000 -58.2000 HU 70 9 278
1862275N12308 1862 23 NA NA NOT_NAMED 1862-10-03 09:00:00 TS 13.4725 -58.6449 main 408 381 _____________P -1 13.4725 -58.6449 HU 67 8 277
1862275N12308 1862 23 NA NA NOT_NAMED 1862-10-03 12:00:00 TS 13.5000 -59.0000 main 381 360 _____________O -1 13.5000 -59.0000 HU 65 5 264
1862275N12308 1862 23 NA NA NOT_NAMED 1862-10-03 15:00:00 TS 13.4149 -59.1950 main 360 344 _____________P -1 13.4149 -59.1950 HU 60 4 236
1862275N12308 1862 23 NA CS NOT_NAMED 1862-10-03 18:00:00 TS 13.3000 -59.3000 main 344 329 _____________O -1 13.3000 -59.3000 TS 55 3 229
1862275N12308 1862 23 NA CS NOT_NAMED 1862-10-03 21:00:00 TS 13.2425 -59.4000 main 329 324 _____________P -1 13.2425 -59.4000 TS 52 2 243
1862275N12308 1862 23 NA CS NOT_NAMED 1862-10-04 00:00:00 TS 13.2000 -59.5000 main 324 318 _____________O -1 13.2000 -59.5000 TS 50 3 249
1862275N12308 1862 23 NA CS NOT_NAMED 1862-10-04 03:00:00 TS 13.1500 -59.6500 main 318 298 _____________P -1 13.1500 -59.6500 TS 50 3 251
1862275N12308 1862 23 NA CS NOT_NAMED 1862-10-04 06:00:00 TS 13.1000 -59.8000 main 298 284 _____________O -1 13.1000 -59.8000 TS 50 3 243
1862275N12308 1862 23 NA CS NOT_NAMED 1862-10-04 09:00:00 TS 13.0200 -59.9075 main 284 279 _____________P -1 13.0200 -59.9075 TS 50 2 243
1862275N12308 1862 23 NA CS NOT_NAMED 1862-10-04 12:00:00 TS 13.0000 -60.0000 main 279 275 _____________O -1 13.0000 -60.0000 TS 50 2 290
1862275N12308 1862 23 NA CS NOT_NAMED 1862-10-04 15:00:00 TS 13.0900 -60.1075 main 286 286 _____________P -1 13.0900 -60.1075 TS 50 4 327
1862275N12308 1862 23 NA CS NOT_NAMED 1862-10-04 18:00:00 TS 13.3000 -60.2000 main 303 303 _____________O -1 13.3000 -60.2000 TS 50 6 345
1862275N12308 1862 23 NA CS NOT_NAMED 1862-10-04 21:00:00 TS 13.6350 -60.2575 main 333 333 _____________P -1 13.6350 -60.2575 TS 47 7 352
1862275N12308 1862 23 NA CS NOT_NAMED 1862-10-05 00:00:00 TS 14.0000 -60.3000 main 377 377 _____________O -1 14.0000 -60.3000 TS 45 6 352
1862275N12308 1862 23 NA CS NOT_NAMED 1862-10-05 03:00:00 TS 14.2650 -60.3500 main 408 408 _____________P -1 14.2650 -60.3500 TS 45 5 349
1862275N12308 1862 23 NA CS NOT_NAMED 1862-10-05 06:00:00 TS 14.5000 -60.4000 main 430 430 _____________O -1 14.5000 -60.4000 TS 45 5 352
1862275N12308 1862 23 NA CS NOT_NAMED 1862-10-05 09:00:00 TS 14.7575 -60.4201 main 463 463 _____________P -1 14.7575 -60.4201 TS 45 5 349
1862275N12308 1862 23 NA CS NOT_NAMED 1862-10-05 12:00:00 TS 15.0000 -60.5000 main 484 484 _____________O -1 15.0000 -60.5000 TS 45 5 327
1862275N12308 1862 23 NA CS NOT_NAMED 1862-10-05 15:00:00 TS 15.2076 -60.7275 main 504 504 _____________P -1 15.2076 -60.7275 TS 45 6 310
1862275N12308 1862 23 NA CS NOT_NAMED 1862-10-05 18:00:00 TS 15.4000 -61.0000 main 526 526 _____________O -1 15.4000 -61.0000 TS 45 6 311
1862275N12308 1862 23 NA CS NOT_NAMED 1862-10-05 21:00:00 TS 15.5999 -61.2001 main 548 521 _____________P -1 15.5999 -61.2001 TS 45 6 316
1862275N12308 1862 23 NA CS NOT_NAMED 1862-10-06 00:00:00 TS 15.8000 -61.4000 main 521 491 _____________O -1 15.8000 -61.4000 TS 45 6 313
1862275N12308 1862 23 NA CS NOT_NAMED 1862-10-06 03:00:00 TS 16.0075 -61.6500 main 491 452 _____________P -1 16.0075 -61.6500 TS 45 6 310
1862275N12308 1862 23 NA CS NOT_NAMED 1862-10-06 06:00:00 TS 16.2000 -61.9000 main 452 428 _____________O -1 16.2000 -61.9000 TS 45 6 308
1862275N12308 1862 23 NA CS NOT_NAMED 1862-10-06 09:00:00 TS 16.3500 -62.1151 main 428 398 _____________P -1 16.3500 -62.1151 TS 45 5 308
1862275N12308 1862 23 NA CS NOT_NAMED 1862-10-06 12:00:00 TS 16.5000 -62.3000 main 398 369 _____________O -1 16.5000 -62.3000 TS 45 5 316
1862275N12308 1862 23 NA CS NOT_NAMED 1862-10-06 15:00:00 TS 16.6925 -62.4650 main 369 349 _____________P -1 16.6925 -62.4650 TS 42 5 324
1862275N12308 1862 23 NA CS NOT_NAMED 1862-10-06 18:00:00 TS 16.9000 -62.6000 main 349 331 _____________O -1 16.9000 -62.6000 TS 40 5 331
1862275N12308 1862 23 NA CS NOT_NAMED 1862-10-06 21:00:00 TS 17.1000 -62.7001 main 331 313 _____________P -1 17.1000 -62.7001 TS 40 4 335
1862275N12308 1862 23 NA CS NOT_NAMED 1862-10-07 00:00:00 TS 17.3000 -62.8000 main 313 296 _____________O -1 17.3000 -62.8000 TS 40 5 330
1862275N12308 1862 23 NA CS NOT_NAMED 1862-10-07 03:00:00 TS 17.5075 -62.9500 main 296 270 _____________P -1 17.5075 -62.9500 TS 40 5 325
1862275N12308 1862 23 NA CS NOT_NAMED 1862-10-07 06:00:00 TS 17.7000 -63.1000 main 270 255 _____________O -1 17.7000 -63.1000 TS 40 4 325
1862275N12308 1862 23 NA CS NOT_NAMED 1862-10-07 09:00:00 TS 17.8650 -63.2150 main 255 244 _____________P -1 17.8650 -63.2150 TS 37 4 328
1862275N12308 1862 23 NA CS NOT_NAMED 1862-10-07 12:00:00 TS 18.0000 -63.3000 main 244 232 _____________O -1 18.0000 -63.3000 TS 35 3 329
1862275N12308 1862 23 NA CS NOT_NAMED 1862-10-07 15:00:00 TS 18.1075 -63.3650 main 232 232 _____________P -1 18.1075 -63.3650 TS 32 2 333
1862275N12308 1862 23 NA CS NOT_NAMED 1862-10-07 18:00:00 TS 18.2000 -63.4000 main 232 232 _____________O -1 18.2000 -63.4000 TD 30 2 347
1862275N12308 1862 23 NA CS NOT_NAMED 1862-10-07 21:00:00 TS 18.3000 -63.4000 main 232 232 _____________P -1 18.3000 -63.4000 TD 30 2 8
1862275N12308 1862 23 NA CS NOT_NAMED 1862-10-08 00:00:00 TS 18.4000 -63.4000 main 232 232 _____________O -1 18.4000 -63.4000 TD 30 2 347
1862275N12308 1862 23 NA CS NOT_NAMED 1862-10-08 03:00:00 TS 18.5075 -63.4500 main 232 221 _____________P -1 18.5075 -63.4500 TD 30 2 333
1862275N12308 1862 23 NA CS NOT_NAMED 1862-10-08 06:00:00 TS 18.6000 -63.5000 main 222 222 _____________O -1 18.6000 -63.5000 TD 30 1 344
1862275N12308 1862 23 NA CS NOT_NAMED 1862-10-08 09:00:00 TS 18.6275 -63.4926 main 222 222 _____________P -1 18.6275 -63.4926 TD 30 1 0
1862275N12308 1862 23 NA CS NOT_NAMED 1862-10-08 12:00:00 TS 18.7000 -63.5000 main 223 215 _____________O -1 18.7000 -63.5000 TD 30 3 341
1862275N12308 1862 23 NA CS NOT_NAMED 1862-10-08 15:00:00 TS 18.9275 -63.5924 main 218 214 _____________P -1 18.9275 -63.5924 TD 30 5 339
1862275N12308 1862 23 NA NA NOT_NAMED 1862-10-08 18:00:00 TS 19.2000 -63.7000 main 219 219 _____________O -1 19.2000 -63.7000 TD 30 5 341
1862275N12308 1862 23 NA NA NOT_NAMED 1862-10-08 21:00:00 TS 19.4000 -63.7576 main 219 219 _____________P -1 19.4000 -63.7576 TD 30 4 347
1862275N12308 1862 23 NA NA NOT_NAMED 1862-10-09 00:00:00 TS 19.6000 -63.8000 main 232 232 _____________O -1 19.6000 -63.8000 TD 30 5 349
1862275N12308 1862 23 NA NA NOT_NAMED 1862-10-09 03:00:00 TS 19.8500 -63.8500 main 252 245 _____________P -1 19.8500 -63.8500 TD 30 5 349
1862275N12308 1862 23 NA NA NOT_NAMED 1862-10-09 06:00:00 TS 20.1000 -63.9000 main 260 260 _____________O -1 20.1000 -63.9000 TD 30 5 349
1862275N12308 1862 23 NA NA NOT_NAMED 1862-10-09 09:00:00 TS 20.3075 -63.9426 main 277 270 _____________P -1 20.3075 -63.9426 TD 30 4 347
1862275N12308 1862 23 NA NA NOT_NAMED 1862-10-09 12:00:00 TS 20.5000 -64.0000 main 288 288 _____________O -1 20.5000 -64.0000 TD 30 4 340
1862275N12308 1862 23 NA NA NOT_NAMED 1862-10-09 15:00:00 TS 20.7000 -64.0925 main 301 301 _____________P -1 20.7000 -64.0925 TD 30 4 335
1862275N12308 1862 23 NA NA NOT_NAMED 1862-10-09 18:00:00 TS 20.9000 -64.2000 main 315 315 _____________O -1 20.9000 -64.2000 TD 30 4 334
1862275N12308 1862 23 NA NA NOT_NAMED 1862-10-09 21:00:00 TS 21.1000 -64.3000 main 331 331 _____________P -1 21.1000 -64.3000 TD 30 4 335
1862275N12308 1862 23 NA NA NOT_NAMED 1862-10-10 00:00:00 TS 21.3000 -64.4000 main 347 347 _____________O -1 21.3000 -64.4000 TD 30 5 336
1862275N12308 1862 23 NA NA NOT_NAMED 1862-10-10 03:00:00 TS 21.5075 -64.5000 main 365 365 _____________P -1 21.5075 -64.5000 TD 30 4 335
1862275N12308 1862 23 NA NA NOT_NAMED 1862-10-10 06:00:00 TS 21.7000 -64.6000 main 383 383 _____________O -1 21.7000 -64.6000 TD 30 4 331
1862275N12308 1862 23 NA NA NOT_NAMED 1862-10-10 09:00:00 TS 21.8425 -64.7001 main 391 391 _____________P -1 21.8425 -64.7001 TD 30 4 329
1862275N12308 1862 23 NA NA NOT_NAMED 1862-10-10 12:00:00 TS 22.0000 -64.8000 main 411 411 _____________O -1 22.0000 -64.8000 TD 30 4 335
1862275N12308 1862 23 NA NA NOT_NAMED 1862-10-10 15:00:00 TS 22.2350 -64.9000 main 431 431 _____________P -1 22.2350 -64.9000 TD 30 5 340
1862275N12308 1862 23 NA NA NOT_NAMED 1862-10-10 18:00:00 TS 22.5000 -65.0000 main 462 462 _____________O -1 22.5000 -65.0000 TD 30 6 340
1862275N12308 1862 23 NA NA NOT_NAMED 1862-10-10 21:00:00 TS 22.7500 -65.1000 main 483 483 _____________P -1 22.7500 -65.1000 TD 30 5 340
1862275N12308 1862 23 NA NA NOT_NAMED 1862-10-11 00:00:00 TS 23.0000 -65.2000 main 516 516 _____________O -1 23.0000 -65.2000 TD 30 5 339
1862275N12308 1862 23 NA NA NOT_NAMED 1862-10-11 03:00:00 TS 23.2500 -65.3075 main 548 548 _____________P -1 23.2500 -65.3075 TD 30 5 340
1862275N12308 1862 23 NA NA NOT_NAMED 1862-10-11 06:00:00 TS 23.5000 -65.4000 main 570 570 _____________O -1 23.5000 -65.4000 TD 30 5 345
1862275N12308 1862 23 NA NA NOT_NAMED 1862-10-11 09:00:00 TS 23.7500 -65.4501 main 592 592 _____________P -1 23.7500 -65.4501 TD 30 5 350
1862275N12308 1862 23 NA NA NOT_NAMED 1862-10-11 12:00:00 TS 24.0000 -65.5000 main 626 626 _____________O -1 24.0000 -65.5000 TD 30 5 345
1862275N12308 1862 23 NA NA NOT_NAMED 1862-10-11 15:00:00 TS 24.2575 -65.5999 main 659 659 _____________P -1 24.2575 -65.5999 TD 30 5 340
1862275N12308 1862 23 NA NA NOT_NAMED 1862-10-11 18:00:00 TS 24.5000 -65.7000 main 682 682 _____________O -1 24.5000 -65.7000 TD 30 5 342
1862275N12308 1862 23 NA NA NOT_NAMED 1862-10-11 21:00:00 TS 24.7000 -65.7576 main 703 703 _____________P -1 24.7000 -65.7576 TD 30 4 348
1862275N12308 1862 23 NA NA NOT_NAMED 1862-10-12 00:00:00 TS 24.9000 -65.8000 main 722 722 _____________O -1 24.9000 -65.8000 TD 30 5 350
1862275N12308 1862 23 NA NA NOT_NAMED 1862-10-12 03:00:00 TS 25.1500 -65.8500 main 751 746 _____________P -1 25.1500 -65.8500 TD 30 5 350
1862275N12308 1862 23 NA NA NOT_NAMED 1862-10-12 06:00:00 TS 25.4000 -65.9000 main 766 766 _____________O -1 25.4000 -65.9000 TD 30 5 349
1862275N12308 1862 23 NA NA NOT_NAMED 1862-10-12 09:00:00 TS 25.6000 -65.9500 main 781 781 _____________P -1 25.6000 -65.9500 TD 30 4 348
1862275N12308 1862 23 NA NA NOT_NAMED 1862-10-12 12:00:00 TS 25.8000 -66.0000 main 801 801 _____________O -1 25.8000 -66.0000 TD 30 5 349
1862275N12308 1862 23 NA NA NOT_NAMED 1862-10-12 15:00:00 TS 26.0500 -66.0500 main 831 817 _____________P -1 26.0500 -66.0500 TD 30 5 350
1862275N12308 1862 23 NA NA NOT_NAMED 1862-10-12 18:00:00 TS 26.3000 -66.1000 main 848 848 _____________O -1 26.3000 -66.1000 TD 30 5 349
1862275N12308 1862 23 NA NA NOT_NAMED 1862-10-12 21:00:00 TS 26.5000 -66.1500 main 863 863 _____________P -1 26.5000 -66.1500 TD 30 4 348
1862275N12308 1862 23 NA NA NOT_NAMED 1862-10-13 00:00:00 TS 26.7000 -66.2000 main 883 883 _____________O -1 26.7000 -66.2000 TD 30 5 348
1862275N12308 1862 23 NA NA NOT_NAMED 1862-10-13 03:00:00 TS 26.9425 -66.2575 main 899 899 _____________P -1 26.9425 -66.2575 TD 32 5 350
1862275N12308 1862 23 NA NA NOT_NAMED 1862-10-13 06:00:00 TS 27.2000 -66.3000 main 929 929 _____________O -1 27.2000 -66.3000 TS 35 5 355
1862275N12308 1862 23 NA NA NOT_NAMED 1862-10-13 09:00:00 TS 27.4500 -66.3001 main 959 949 _____________P -1 27.4500 -66.3001 TS 37 5 2
1862275N12308 1862 23 NA NA NOT_NAMED 1862-10-13 12:00:00 TS 27.7000 -66.3000 main 980 980 _____________O -1 27.7000 -66.3000 TS 40 5 355
1862275N12308 1862 23 NA NA NOT_NAMED 1862-10-13 15:00:00 TS 27.9575 -66.3499 main 1011 1007 _____________P -1 27.9575 -66.3499 TS 42 5 350
1862275N12308 1862 23 NA NA NOT_NAMED 1862-10-13 18:00:00 TS 28.2000 -66.4000 main 1027 1027 _____________O -1 28.2000 -66.4000 TS 45 4 355
1862275N12308 1862 23 NA NA NOT_NAMED 1862-10-13 21:00:00 TS 28.4000 -66.4001 main 1043 1043 _____________P -1 28.4000 -66.4001 TS 47 4 0
1862275N12308 1862 23 NA NA NOT_NAMED 1862-10-14 00:00:00 TS 28.6000 -66.4000 main 1060 1060 _____________O -1 28.6000 -66.4000 TS 50 5 356
1862275N12308 1862 23 NA NA NOT_NAMED 1862-10-14 03:00:00 TS 28.8500 -66.4499 main 1086 1080 _____________P -1 28.8500 -66.4499 TS 52 5 350
1862275N12308 1862 23 NA NA NOT_NAMED 1862-10-14 06:00:00 TS 29.1000 -66.5000 main 1097 1097 _____________O -1 29.1000 -66.5000 TS 55 5 354
1862275N12308 1862 23 NA NA NOT_NAMED 1862-10-14 09:00:00 TS 29.3000 -66.5076 main 1110 1094 _____________P -1 29.3000 -66.5076 TS 57 4 0
1862275N12308 1862 23 NA NA NOT_NAMED 1862-10-14 12:00:00 TS 29.5000 -66.5000 main 1094 1080 _____________O -1 29.5000 -66.5000 TS 60 5 0
1862275N12308 1862 23 NA NA NOT_NAMED 1862-10-14 15:00:00 TS 29.7500 -66.5000 main 1072 1058 _____________P -1 29.7500 -66.5000 TS 62 5 2
1862275N12308 1862 23 NA NA NOT_NAMED 1862-10-14 18:00:00 TS 30.0000 -66.5000 main 1058 1044 _____________O -1 30.0000 -66.5000 HU 65 5 0
1862275N12308 1862 23 NA NA NOT_NAMED 1862-10-14 21:00:00 TS 30.2000 -66.5074 main 1044 1030 _____________P -1 30.2000 -66.5074 HU 65 4 0
1862275N12308 1862 23 NA NA NOT_NAMED 1862-10-15 00:00:00 TS 30.4000 -66.5000 main 1030 1016 _____________O -1 30.4000 -66.5000 HU 65 5 4
1862275N12308 1862 23 NA NA NOT_NAMED 1862-10-15 03:00:00 TS 30.6500 -66.4576 main 1009 1004 _____________P -1 30.6500 -66.4576 HU 67 5 10
1862275N12308 1862 23 NA NA NOT_NAMED 1862-10-15 06:00:00 TS 30.9000 -66.4000 main 1004 997 _____________O -1 30.9000 -66.4000 HU 70 4 13
1862275N12308 1862 23 NA NA NOT_NAMED 1862-10-15 09:00:00 TS 31.0475 -66.3499 main 1005 987 _____________P -1 31.0475 -66.3499 HU 70 4 12
1862275N12308 1862 23 NA NA NOT_NAMED 1862-10-15 12:00:00 TS 31.3000 -66.3000 main 987 957 _____________O -1 31.3000 -66.3000 HU 70 8 4
1862275N12308 1862 23 NA NA NOT_NAMED 1862-10-15 15:00:00 TS 31.8024 -66.2865 main 957 929 _____________P -1 31.8024 -66.2865 HU 72 12 4
1862275N12308 1862 23 NA NA NOT_NAMED 1862-10-15 18:00:00 TS 32.5000 -66.2000 main 929 910 _____________O -1 32.5000 -66.2000 HU 75 13 9
1862275N12308 1862 23 NA NA NOT_NAMED 1862-10-15 21:00:00 TS 33.1316 -66.0414 main 919 907 _____________P -1 33.1316 -66.0414 HU 75 18 16
1862275N12308 1862 23 NA NA NOT_NAMED 1862-10-16 00:00:00 TS 34.2000 -65.6000 main 916 777 _____________O -1 34.2000 -65.6000 HU 75 981 31 20
1862275N12308 1862 23 NA NA NOT_NAMED 1862-10-16 03:00:00 TS 36.0764 -64.7645 main 767 606 _____________P -1 36.0764 -64.7645 HU 70 44 22
1862275N12308 1862 23 NA NA NOT_NAMED 1862-10-16 06:00:00 TS 38.3000 -63.5000 main 597 443 _____________O -1 38.3000 -63.5000 HU 65 49 27
1862275N12308 1862 23 NA NA NOT_NAMED 1862-10-16 09:00:00 TS 40.4007 -61.9652 main 439 342 _____________P -1 40.4007 -61.9652 HU 57 48 34
1862275N12308 1862 23 NA NA NOT_NAMED 1862-10-16 12:00:00 TS 42.3000 -60.0000 main 334 286 _____________O -1 42.3000 -60.0000 TS 50 47 43
1862275N12308 1862 23 NA NA NOT_NAMED 1862-10-16 15:00:00 TS 43.7909 -57.6319 main 296 213 _____________P -1 43.7909 -57.6319 TS 45 45 53
1862275N12308 1862 23 NA NA NOT_NAMED 1862-10-16 18:00:00 ET 45.0000 -55.0000 main 207 _____________O -1 45.0000 -55.0000 EX 40 44 57

IBTrACS Databaseについて

本データベースは、米国NOAAが公開する1842年以降の世界の熱帯低気圧のベストトラックデータアーカイブInternational Best Track Archive for Climate Stewardship (IBTrACS)を、ウェブで閲覧しやすい形式に変換したものです。

最終更新日:2021-11-26